sensor_id;sensor_type;location;lat;lon;timestamp;temperature;humidity
19081;DHT22;9673;50.868;3.152;2022-09-09T00:02:00;14.70;99.90
19081;DHT22;9673;50.868;3.152;2022-09-09T00:05:17;14.70;99.90
19081;DHT22;9673;50.868;3.152;2022-09-09T00:08:37;14.70;99.90
19081;DHT22;9673;50.868;3.152;2022-09-09T00:11:52;14.70;99.90
19081;DHT22;9673;50.868;3.152;2022-09-09T00:15:05;14.70;99.90
19081;DHT22;9673;50.868;3.152;2022-09-09T00:18:24;14.80;99.90
19081;DHT22;9673;50.868;3.152;2022-09-09T00:21:36;14.80;99.90
19081;DHT22;9673;50.868;3.152;2022-09-09T00:24:45;14.80;99.90
19081;DHT22;9673;50.868;3.152;2022-09-09T00:27:53;14.90;99.90
19081;DHT22;9673;50.868;3.152;2022-09-09T00:31:04;14.90;99.90
19081;DHT22;9673;50.868;3.152;2022-09-09T00:34:21;14.90;99.90
19081;DHT22;9673;50.868;3.152;2022-09-09T00:37:29;15.00;99.90
19081;DHT22;9673;50.868;3.152;2022-09-09T00:40:48;15.00;99.90
19081;DHT22;9673;50.868;3.152;2022-09-09T00:44:00;15.00;99.90
19081;DHT22;9673;50.868;3.152;2022-09-09T00:47:36;15.00;99.90
19081;DHT22;9673;50.868;3.152;2022-09-09T00:50:53;15.00;99.90
19081;DHT22;9673;50.868;3.152;2022-09-09T00:54:19;15.00;99.90
19081;DHT22;9673;50.868;3.152;2022-09-09T00:57:32;14.90;99.90
19081;DHT22;9673;50.868;3.152;2022-09-09T01:00:43;14.90;99.90
19081;DHT22;9673;50.868;3.152;2022-09-09T01:03:53;14.90;99.90
19081;DHT22;9673;50.868;3.152;2022-09-09T01:07:07;14.80;99.90
19081;DHT22;9673;50.868;3.152;2022-09-09T01:10:26;14.80;99.90
19081;DHT22;9673;50.868;3.152;2022-09-09T01:13:37;14.80;99.90
19081;DHT22;9673;50.868;3.152;2022-09-09T01:16:46;14.80;99.90
19081;DHT22;9673;50.868;3.152;2022-09-09T01:20:03;14.70;99.90
19081;DHT22;9673;50.868;3.152;2022-09-09T01:23:33;14.70;99.90
19081;DHT22;9673;50.868;3.152;2022-09-09T01:27:01;14.60;99.90
19081;DHT22;9673;50.868;3.152;2022-09-09T01:30:10;14.60;99.90
19081;DHT22;9673;50.868;3.152;2022-09-09T01:33:18;14.60;99.90
19081;DHT22;9673;50.868;3.152;2022-09-09T01:36:29;14.60;99.90
19081;DHT22;9673;50.868;3.152;2022-09-09T01:39:42;14.50;99.90
19081;DHT22;9673;50.868;3.152;2022-09-09T01:42:54;14.50;99.90
19081;DHT22;9673;50.868;3.152;2022-09-09T01:46:01;14.50;99.90
19081;DHT22;9673;50.868;3.152;2022-09-09T01:49:09;14.50;99.90
19081;DHT22;9673;50.868;3.152;2022-09-09T01:52:15;14.50;99.90
19081;DHT22;9673;50.868;3.152;2022-09-09T01:55:29;14.60;99.90
19081;DHT22;9673;50.868;3.152;2022-09-09T01:58:49;14.60;99.90
19081;DHT22;9673;50.868;3.152;2022-09-09T02:02:09;14.60;99.90
19081;DHT22;9673;50.868;3.152;2022-09-09T02:05:30;14.60;99.90
19081;DHT22;9673;50.868;3.152;2022-09-09T02:08:47;14.70;99.90
19081;DHT22;9673;50.868;3.152;2022-09-09T02:12:00;14.70;99.90
19081;DHT22;9673;50.868;3.152;2022-09-09T02:15:27;14.70;99.90
19081;DHT22;9673;50.868;3.152;2022-09-09T02:18:40;14.70;99.90
19081;DHT22;9673;50.868;3.152;2022-09-09T02:21:52;14.70;99.90
19081;DHT22;9673;50.868;3.152;2022-09-09T02:25:00;14.70;99.90
19081;DHT22;9673;50.868;3.152;2022-09-09T02:28:09;14.70;99.90
19081;DHT22;9673;50.868;3.152;2022-09-09T02:31:21;14.70;99.90
19081;DHT22;9673;50.868;3.152;2022-09-09T02:34:36;14.70;99.90
19081;DHT22;9673;50.868;3.152;2022-09-09T02:37:46;14.70;99.90
19081;DHT22;9673;50.868;3.152;2022-09-09T02:40:54;14.70;99.90
19081;DHT22;9673;50.868;3.152;2022-09-09T02:44:01;14.70;99.90
19081;DHT22;9673;50.868;3.152;2022-09-09T02:47:20;14.70;99.90
19081;DHT22;9673;50.868;3.152;2022-09-09T02:50:43;14.70;99.90
19081;DHT22;9673;50.868;3.152;2022-09-09T02:54:00;14.80;99.90
19081;DHT22;9673;50.868;3.152;2022-09-09T02:57:16;14.80;99.90
19081;DHT22;9673;50.868;3.152;2022-09-09T03:00:27;14.90;99.90
19081;DHT22;9673;50.868;3.152;2022-09-09T03:03:39;14.90;99.90
19081;DHT22;9673;50.868;3.152;2022-09-09T03:06:51;14.90;99.90
19081;DHT22;9673;50.868;3.152;2022-09-09T03:09:58;15.00;99.90
19081;DHT22;9673;50.868;3.152;2022-09-09T03:13:05;15.00;99.90
19081;DHT22;9673;50.868;3.152;2022-09-09T03:16:16;15.00;99.90
19081;DHT22;9673;50.868;3.152;2022-09-09T03:19:27;15.10;99.90
19081;DHT22;9673;50.868;3.152;2022-09-09T03:22:35;15.10;99.90
19081;DHT22;9673;50.868;3.152;2022-09-09T03:25:46;15.10;99.90
19081;DHT22;9673;50.868;3.152;2022-09-09T03:28:57;15.10;99.90
19081;DHT22;9673;50.868;3.152;2022-09-09T03:32:06;15.10;99.90
19081;DHT22;9673;50.868;3.152;2022-09-09T03:35:18;15.10;99.90
19081;DHT22;9673;50.868;3.152;2022-09-09T03:38:24;15.10;99.90
19081;DHT22;9673;50.868;3.152;2022-09-09T03:41:31;15.20;99.90
19081;DHT22;9673;50.868;3.152;2022-09-09T03:44:40;15.20;99.90
19081;DHT22;9673;50.868;3.152;2022-09-09T03:47:47;15.20;99.90
19081;DHT22;9673;50.868;3.152;2022-09-09T03:50:56;15.20;99.90
19081;DHT22;9673;50.868;3.152;2022-09-09T03:54:06;15.20;99.90
19081;DHT22;9673;50.868;3.152;2022-09-09T03:57:15;15.20;99.90
19081;DHT22;9673;50.868;3.152;2022-09-09T04:00:21;15.20;99.90
19081;DHT22;9673;50.868;3.152;2022-09-09T04:03:30;15.20;99.90
19081;DHT22;9673;50.868;3.152;2022-09-09T04:06:38;15.10;99.90
19081;DHT22;9673;50.868;3.152;2022-09-09T04:09:44;15.10;99.90
19081;DHT22;9673;50.868;3.152;2022-09-09T04:12:51;15.10;99.90
19081;DHT22;9673;50.868;3.152;2022-09-09T04:15:59;15.10;99.90
19081;DHT22;9673;50.868;3.152;2022-09-09T04:19:07;15.10;99.90
19081;DHT22;9673;50.868;3.152;2022-09-09T04:22:15;15.10;99.90
19081;DHT22;9673;50.868;3.152;2022-09-09T04:25:21;15.10;99.90
19081;DHT22;9673;50.868;3.152;2022-09-09T04:28:30;15.10;99.90
19081;DHT22;9673;50.868;3.152;2022-09-09T04:31:38;15.00;99.90
19081;DHT22;9673;50.868;3.152;2022-09-09T04:34:47;15.00;99.90
19081;DHT22;9673;50.868;3.152;2022-09-09T04:37:55;14.90;99.90
19081;DHT22;9673;50.868;3.152;2022-09-09T04:41:01;14.90;99.90
19081;DHT22;9673;50.868;3.152;2022-09-09T04:44:09;14.80;99.90
19081;DHT22;9673;50.868;3.152;2022-09-09T04:47:16;14.70;99.90
19081;DHT22;9673;50.868;3.152;2022-09-09T04:50:23;14.70;99.90
19081;DHT22;9673;50.868;3.152;2022-09-09T04:53:37;14.70;99.90
19081;DHT22;9673;50.868;3.152;2022-09-09T04:56:44;14.70;99.90
19081;DHT22;9673;50.868;3.152;2022-09-09T04:59:52;14.70;99.90
19081;DHT22;9673;50.868;3.152;2022-09-09T05:03:02;14.70;99.90
19081;DHT22;9673;50.868;3.152;2022-09-09T05:06:12;14.60;99.90
19081;DHT22;9673;50.868;3.152;2022-09-09T05:09:20;14.60;99.90
19081;DHT22;9673;50.868;3.152;2022-09-09T05:12:29;14.60;99.90
19081;DHT22;9673;50.868;3.152;2022-09-09T05:15:36;14.60;99.90
19081;DHT22;9673;50.868;3.152;2022-09-09T05:18:43;14.60;99.90
19081;DHT22;9673;50.868;3.152;2022-09-09T05:21:51;14.60;99.90
19081;DHT22;9673;50.868;3.152;2022-09-09T05:25:08;14.60;99.90
19081;DHT22;9673;50.868;3.152;2022-09-09T05:28:15;14.60;99.90
19081;DHT22;9673;50.868;3.152;2022-09-09T05:31:22;14.70;99.90
19081;DHT22;9673;50.868;3.152;2022-09-09T05:34:31;14.70;99.90
19081;DHT22;9673;50.868;3.152;2022-09-09T05:37:38;14.70;99.90
19081;DHT22;9673;50.868;3.152;2022-09-09T05:40:48;14.70;99.90
19081;DHT22;9673;50.868;3.152;2022-09-09T05:43:55;14.70;99.90
19081;DHT22;9673;50.868;3.152;2022-09-09T05:47:04;14.70;99.90
19081;DHT22;9673;50.868;3.152;2022-09-09T05:50:12;14.70;99.90
19081;DHT22;9673;50.868;3.152;2022-09-09T05:53:19;14.70;99.90
19081;DHT22;9673;50.868;3.152;2022-09-09T05:56:29;14.70;99.90
19081;DHT22;9673;50.868;3.152;2022-09-09T05:59:36;14.70;99.90
19081;DHT22;9673;50.868;3.152;2022-09-09T06:02:43;14.80;99.90
19081;DHT22;9673;50.868;3.152;2022-09-09T06:05:57;14.80;99.90
19081;DHT22;9673;50.868;3.152;2022-09-09T06:09:06;14.80;99.90
19081;DHT22;9673;50.868;3.152;2022-09-09T06:12:18;14.80;99.90
19081;DHT22;9673;50.868;3.152;2022-09-09T06:15:26;14.90;99.90
19081;DHT22;9673;50.868;3.152;2022-09-09T06:18:34;14.90;99.90
19081;DHT22;9673;50.868;3.152;2022-09-09T06:21:41;15.00;99.90
19081;DHT22;9673;50.868;3.152;2022-09-09T06:24:49;15.00;99.90
19081;DHT22;9673;50.868;3.152;2022-09-09T06:27:57;15.00;99.90
19081;DHT22;9673;50.868;3.152;2022-09-09T06:31:05;15.00;99.90
19081;DHT22;9673;50.868;3.152;2022-09-09T06:34:12;14.90;99.90
19081;DHT22;9673;50.868;3.152;2022-09-09T06:37:22;14.90;99.90
19081;DHT22;9673;50.868;3.152;2022-09-09T06:40:29;14.80;99.90
19081;DHT22;9673;50.868;3.152;2022-09-09T06:43:37;14.80;99.90
19081;DHT22;9673;50.868;3.152;2022-09-09T06:46:43;14.80;99.90
19081;DHT22;9673;50.868;3.152;2022-09-09T06:49:53;14.80;99.90
19081;DHT22;9673;50.868;3.152;2022-09-09T06:53:01;14.80;99.90
19081;DHT22;9673;50.868;3.152;2022-09-09T06:56:19;14.80;99.90
19081;DHT22;9673;50.868;3.152;2022-09-09T06:59:32;14.80;99.90
19081;DHT22;9673;50.868;3.152;2022-09-09T07:02:38;14.80;99.90
19081;DHT22;9673;50.868;3.152;2022-09-09T07:05:54;14.70;99.90
19081;DHT22;9673;50.868;3.152;2022-09-09T07:09:05;14.70;99.90
19081;DHT22;9673;50.868;3.152;2022-09-09T07:12:15;14.70;99.90
19081;DHT22;9673;50.868;3.152;2022-09-09T07:15:31;14.70;99.90
19081;DHT22;9673;50.868;3.152;2022-09-09T07:18:39;14.70;99.90
19081;DHT22;9673;50.868;3.152;2022-09-09T07:21:45;14.70;99.90
19081;DHT22;9673;50.868;3.152;2022-09-09T07:24:55;14.70;99.90
19081;DHT22;9673;50.868;3.152;2022-09-09T07:28:03;14.70;99.90
19081;DHT22;9673;50.868;3.152;2022-09-09T07:31:14;14.80;99.90
19081;DHT22;9673;50.868;3.152;2022-09-09T07:34:22;14.80;99.90
19081;DHT22;9673;50.868;3.152;2022-09-09T07:37:29;14.80;99.90
19081;DHT22;9673;50.868;3.152;2022-09-09T07:40:36;14.80;99.90
19081;DHT22;9673;50.868;3.152;2022-09-09T07:43:44;14.90;99.90
19081;DHT22;9673;50.868;3.152;2022-09-09T07:46:54;14.90;99.90
19081;DHT22;9673;50.868;3.152;2022-09-09T07:50:06;15.00;99.90
19081;DHT22;9673;50.868;3.152;2022-09-09T07:53:14;15.00;99.90
19081;DHT22;9673;50.868;3.152;2022-09-09T07:56:20;15.10;99.90
19081;DHT22;9673;50.868;3.152;2022-09-09T07:59:28;15.10;99.90
19081;DHT22;9673;50.868;3.152;2022-09-09T08:02:37;15.20;99.90
19081;DHT22;9673;50.868;3.152;2022-09-09T08:05:43;15.40;99.90
19081;DHT22;9673;50.868;3.152;2022-09-09T08:08:50;15.40;99.90
19081;DHT22;9673;50.868;3.152;2022-09-09T08:11:58;15.50;99.90
19081;DHT22;9673;50.868;3.152;2022-09-09T08:15:06;15.50;99.90
19081;DHT22;9673;50.868;3.152;2022-09-09T08:18:14;15.50;99.90
19081;DHT22;9673;50.868;3.152;2022-09-09T08:21:24;15.50;99.90
19081;DHT22;9673;50.868;3.152;2022-09-09T08:24:34;15.60;99.90
19081;DHT22;9673;50.868;3.152;2022-09-09T08:27:41;15.60;99.90
19081;DHT22;9673;50.868;3.152;2022-09-09T08:30:48;15.60;99.90
19081;DHT22;9673;50.868;3.152;2022-09-09T08:33:58;15.70;99.90
19081;DHT22;9673;50.868;3.152;2022-09-09T08:37:06;15.80;99.90
19081;DHT22;9673;50.868;3.152;2022-09-09T08:40:22;16.10;99.90
19081;DHT22;9673;50.868;3.152;2022-09-09T08:43:34;16.20;99.90
19081;DHT22;9673;50.868;3.152;2022-09-09T08:46:46;16.30;99.90
19081;DHT22;9673;50.868;3.152;2022-09-09T08:50:12;16.30;99.90
19081;DHT22;9673;50.868;3.152;2022-09-09T08:53:24;16.40;99.90
19081;DHT22;9673;50.868;3.152;2022-09-09T08:56:35;16.50;99.90
19081;DHT22;9673;50.868;3.152;2022-09-09T08:59:43;16.80;99.90
19081;DHT22;9673;50.868;3.152;2022-09-09T09:02:56;17.40;99.90
19081;DHT22;9673;50.868;3.152;2022-09-09T09:06:26;17.50;99.90
19081;DHT22;9673;50.868;3.152;2022-09-09T09:09:53;17.40;99.90
19081;DHT22;9673;50.868;3.152;2022-09-09T09:13:13;17.30;99.90
19081;DHT22;9673;50.868;3.152;2022-09-09T09:16:27;17.10;99.90
19081;DHT22;9673;50.868;3.152;2022-09-09T09:19:39;16.90;99.90
19081;DHT22;9673;50.868;3.152;2022-09-09T09:22:51;16.80;99.90
19081;DHT22;9673;50.868;3.152;2022-09-09T09:26:00;16.70;99.90
19081;DHT22;9673;50.868;3.152;2022-09-09T09:29:11;16.80;99.90
19081;DHT22;9673;50.868;3.152;2022-09-09T09:32:21;16.80;99.90
19081;DHT22;9673;50.868;3.152;2022-09-09T09:35:29;16.90;99.90
19081;DHT22;9673;50.868;3.152;2022-09-09T09:38:37;17.00;99.90
19081;DHT22;9673;50.868;3.152;2022-09-09T09:42:10;17.00;99.90
19081;DHT22;9673;50.868;3.152;2022-09-09T09:45:28;17.00;99.90
19081;DHT22;9673;50.868;3.152;2022-09-09T09:48:37;17.00;99.90
19081;DHT22;9673;50.868;3.152;2022-09-09T09:51:43;17.20;99.90
19081;DHT22;9673;50.868;3.152;2022-09-09T09:54:52;17.40;99.90
19081;DHT22;9673;50.868;3.152;2022-09-09T09:58:04;17.50;99.90
19081;DHT22;9673;50.868;3.152;2022-09-09T10:01:20;17.50;99.90
19081;DHT22;9673;50.868;3.152;2022-09-09T10:04:29;17.50;99.90
19081;DHT22;9673;50.868;3.152;2022-09-09T10:07:36;17.30;99.90
19081;DHT22;9673;50.868;3.152;2022-09-09T10:10:57;17.20;99.90
19081;DHT22;9673;50.868;3.152;2022-09-09T10:14:16;17.20;99.90
19081;DHT22;9673;50.868;3.152;2022-09-09T10:17:30;17.20;99.90
19081;DHT22;9673;50.868;3.152;2022-09-09T10:20:45;17.20;99.90
19081;DHT22;9673;50.868;3.152;2022-09-09T10:24:20;17.50;99.90
19081;DHT22;9673;50.868;3.152;2022-09-09T10:27:44;18.30;99.90
19081;DHT22;9673;50.868;3.152;2022-09-09T10:31:11;19.10;99.90
19081;DHT22;9673;50.868;3.152;2022-09-09T10:34:39;19.70;99.90
19081;DHT22;9673;50.868;3.152;2022-09-09T10:38:14;20.10;99.90
19081;DHT22;9673;50.868;3.152;2022-09-09T10:41:32;20.30;99.90
19081;DHT22;9673;50.868;3.152;2022-09-09T10:44:57;20.30;99.90
19081;DHT22;9673;50.868;3.152;2022-09-09T10:48:31;20.90;99.90
19081;DHT22;9673;50.868;3.152;2022-09-09T10:51:52;21.80;99.90
19081;DHT22;9673;50.868;3.152;2022-09-09T10:55:10;22.80;99.90
19081;DHT22;9673;50.868;3.152;2022-09-09T10:58:23;22.70;99.90
19081;DHT22;9673;50.868;3.152;2022-09-09T11:01:37;22.50;99.90
19081;DHT22;9673;50.868;3.152;2022-09-09T11:04:51;22.00;99.90
19081;DHT22;9673;50.868;3.152;2022-09-09T11:08:03;21.70;99.90
19081;DHT22;9673;50.868;3.152;2022-09-09T11:11:14;21.90;99.90
19081;DHT22;9673;50.868;3.152;2022-09-09T11:14:30;22.80;99.90
19081;DHT22;9673;50.868;3.152;2022-09-09T11:17:46;23.20;99.90
19081;DHT22;9673;50.868;3.152;2022-09-09T11:21:00;22.90;99.90
19081;DHT22;9673;50.868;3.152;2022-09-09T11:24:11;22.90;99.90
19081;DHT22;9673;50.868;3.152;2022-09-09T11:27:26;23.50;99.90
19081;DHT22;9673;50.868;3.152;2022-09-09T11:30:39;24.10;99.90
19081;DHT22;9673;50.868;3.152;2022-09-09T11:34:17;23.90;99.90
19081;DHT22;9673;50.868;3.152;2022-09-09T11:37:51;24.50;99.90
19081;DHT22;9673;50.868;3.152;2022-09-09T11:41:07;25.00;99.90
19081;DHT22;9673;50.868;3.152;2022-09-09T11:44:19;24.70;99.90
19081;DHT22;9673;50.868;3.152;2022-09-09T11:47:29;24.10;99.90
19081;DHT22;9673;50.868;3.152;2022-09-09T11:50:38;23.50;99.90
19081;DHT22;9673;50.868;3.152;2022-09-09T11:53:49;23.20;99.90
19081;DHT22;9673;50.868;3.152;2022-09-09T11:56:57;22.30;99.90
19081;DHT22;9673;50.868;3.152;2022-09-09T12:00:05;21.50;99.90
19081;DHT22;9673;50.868;3.152;2022-09-09T12:03:39;20.90;99.90
19081;DHT22;9673;50.868;3.152;2022-09-09T12:06:52;20.50;99.90
19081;DHT22;9673;50.868;3.152;2022-09-09T12:10:04;20.30;99.90
19081;DHT22;9673;50.868;3.152;2022-09-09T12:13:17;20.20;99.90
19081;DHT22;9673;50.868;3.152;2022-09-09T12:16:30;20.20;99.90
19081;DHT22;9673;50.868;3.152;2022-09-09T12:19:39;20.10;99.90
19081;DHT22;9673;50.868;3.152;2022-09-09T12:26:32;19.90;99.90
19081;DHT22;9673;50.868;3.152;2022-09-09T12:29:44;20.00;99.90
19081;DHT22;9673;50.868;3.152;2022-09-09T12:33:02;20.50;99.90
19081;DHT22;9673;50.868;3.152;2022-09-09T12:36:11;21.30;99.90
19081;DHT22;9673;50.868;3.152;2022-09-09T12:39:27;21.90;99.90
19081;DHT22;9673;50.868;3.152;2022-09-09T12:42:39;21.90;99.90
19081;DHT22;9673;50.868;3.152;2022-09-09T12:45:46;21.50;99.90
19081;DHT22;9673;50.868;3.152;2022-09-09T12:48:54;21.30;99.90
19081;DHT22;9673;50.868;3.152;2022-09-09T12:52:02;21.10;99.90
19081;DHT22;9673;50.868;3.152;2022-09-09T12:55:18;20.60;99.90
19081;DHT22;9673;50.868;3.152;2022-09-09T12:58:26;20.10;99.90
19081;DHT22;9673;50.868;3.152;2022-09-09T13:01:37;19.70;99.90
19081;DHT22;9673;50.868;3.152;2022-09-09T13:04:43;19.40;99.90
19081;DHT22;9673;50.868;3.152;2022-09-09T13:07:52;19.50;99.90
19081;DHT22;9673;50.868;3.152;2022-09-09T13:11:12;20.10;99.90
19081;DHT22;9673;50.868;3.152;2022-09-09T13:14:27;21.20;99.90
19081;DHT22;9673;50.868;3.152;2022-09-09T13:17:35;23.10;99.90
19081;DHT22;9673;50.868;3.152;2022-09-09T13:20:46;24.40;99.90
19081;DHT22;9673;50.868;3.152;2022-09-09T13:23:53;25.00;99.90
19081;DHT22;9673;50.868;3.152;2022-09-09T13:27:02;25.10;99.90
19081;DHT22;9673;50.868;3.152;2022-09-09T13:30:21;24.60;99.90
19081;DHT22;9673;50.868;3.152;2022-09-09T13:33:31;24.30;99.90
19081;DHT22;9673;50.868;3.152;2022-09-09T13:36:39;24.00;99.90
19081;DHT22;9673;50.868;3.152;2022-09-09T13:39:51;23.90;99.90
19081;DHT22;9673;50.868;3.152;2022-09-09T13:43:00;23.40;99.90
19081;DHT22;9673;50.868;3.152;2022-09-09T13:46:28;22.70;99.90
19081;DHT22;9673;50.868;3.152;2022-09-09T13:49:37;22.30;99.90
19081;DHT22;9673;50.868;3.152;2022-09-09T13:52:43;22.30;99.90
19081;DHT22;9673;50.868;3.152;2022-09-09T13:55:50;22.30;99.90
19081;DHT22;9673;50.868;3.152;2022-09-09T13:58:58;22.00;99.90
19081;DHT22;9673;50.868;3.152;2022-09-09T14:02:06;21.80;99.90
19081;DHT22;9673;50.868;3.152;2022-09-09T14:05:13;21.60;99.90
19081;DHT22;9673;50.868;3.152;2022-09-09T14:08:25;21.50;99.90
19081;DHT22;9673;50.868;3.152;2022-09-09T14:11:33;21.40;99.90
19081;DHT22;9673;50.868;3.152;2022-09-09T14:14:40;21.40;99.90
19081;DHT22;9673;50.868;3.152;2022-09-09T14:17:47;21.20;99.90
19081;DHT22;9673;50.868;3.152;2022-09-09T14:20:53;21.00;99.90
19081;DHT22;9673;50.868;3.152;2022-09-09T14:24:00;20.80;99.90
19081;DHT22;9673;50.868;3.152;2022-09-09T14:27:06;20.70;99.90
19081;DHT22;9673;50.868;3.152;2022-09-09T14:30:14;20.70;99.90
19081;DHT22;9673;50.868;3.152;2022-09-09T14:33:20;20.80;99.90
19081;DHT22;9673;50.868;3.152;2022-09-09T14:36:27;21.10;99.90
19081;DHT22;9673;50.868;3.152;2022-09-09T14:39:33;21.40;99.90
19081;DHT22;9673;50.868;3.152;2022-09-09T14:42:39;21.70;99.90
19081;DHT22;9673;50.868;3.152;2022-09-09T14:45:48;21.80;99.90
19081;DHT22;9673;50.868;3.152;2022-09-09T14:49:01;21.80;99.90
19081;DHT22;9673;50.868;3.152;2022-09-09T14:52:08;21.50;99.90
19081;DHT22;9673;50.868;3.152;2022-09-09T14:55:15;21.10;99.90
19081;DHT22;9673;50.868;3.152;2022-09-09T14:58:22;20.60;99.90
19081;DHT22;9673;50.868;3.152;2022-09-09T15:01:30;20.00;99.90
19081;DHT22;9673;50.868;3.152;2022-09-09T15:04:38;18.70;99.90
19081;DHT22;9673;50.868;3.152;2022-09-09T15:07:45;17.80;99.90
19081;DHT22;9673;50.868;3.152;2022-09-09T15:10:59;17.60;99.90
19081;DHT22;9673;50.868;3.152;2022-09-09T15:14:07;18.20;99.90
19081;DHT22;9673;50.868;3.152;2022-09-09T15:17:15;18.60;99.90
19081;DHT22;9673;50.868;3.152;2022-09-09T15:20:21;19.20;99.90
19081;DHT22;9673;50.868;3.152;2022-09-09T15:23:31;19.60;99.90
19081;DHT22;9673;50.868;3.152;2022-09-09T15:26:38;19.70;99.90
19081;DHT22;9673;50.868;3.152;2022-09-09T15:29:44;19.60;99.90
19081;DHT22;9673;50.868;3.152;2022-09-09T15:32:53;19.60;99.90
19081;DHT22;9673;50.868;3.152;2022-09-09T15:36:00;19.70;99.90
19081;DHT22;9673;50.868;3.152;2022-09-09T15:39:09;20.10;99.90
19081;DHT22;9673;50.868;3.152;2022-09-09T15:42:18;20.20;99.90
19081;DHT22;9673;50.868;3.152;2022-09-09T15:45:25;20.00;99.90
19081;DHT22;9673;50.868;3.152;2022-09-09T15:48:33;19.70;99.90
19081;DHT22;9673;50.868;3.152;2022-09-09T15:51:41;19.40;99.90
19081;DHT22;9673;50.868;3.152;2022-09-09T15:54:49;19.20;99.90
19081;DHT22;9673;50.868;3.152;2022-09-09T15:57:55;19.10;99.90
19081;DHT22;9673;50.868;3.152;2022-09-09T16:01:02;19.00;99.90
19081;DHT22;9673;50.868;3.152;2022-09-09T16:04:11;18.90;99.90
19081;DHT22;9673;50.868;3.152;2022-09-09T16:07:18;18.80;99.90
19081;DHT22;9673;50.868;3.152;2022-09-09T16:10:25;18.70;99.90
19081;DHT22;9673;50.868;3.152;2022-09-09T16:13:33;18.60;99.90
19081;DHT22;9673;50.868;3.152;2022-09-09T16:16:40;18.50;99.90
19081;DHT22;9673;50.868;3.152;2022-09-09T16:19:48;18.60;99.90
19081;DHT22;9673;50.868;3.152;2022-09-09T16:22:55;18.70;99.90
19081;DHT22;9673;50.868;3.152;2022-09-09T16:26:02;18.80;99.90
19081;DHT22;9673;50.868;3.152;2022-09-09T16:29:09;18.90;99.90
19081;DHT22;9673;50.868;3.152;2022-09-09T16:32:16;18.70;99.90
19081;DHT22;9673;50.868;3.152;2022-09-09T16:35:24;18.60;99.90
19081;DHT22;9673;50.868;3.152;2022-09-09T16:38:30;18.50;99.90
19081;DHT22;9673;50.868;3.152;2022-09-09T16:41:39;18.50;99.90
19081;DHT22;9673;50.868;3.152;2022-09-09T16:44:45;18.50;99.90
19081;DHT22;9673;50.868;3.152;2022-09-09T16:47:54;18.50;99.90
19081;DHT22;9673;50.868;3.152;2022-09-09T16:51:05;18.40;99.90
19081;DHT22;9673;50.868;3.152;2022-09-09T16:54:13;18.30;99.90
19081;DHT22;9673;50.868;3.152;2022-09-09T16:57:21;18.20;99.90
19081;DHT22;9673;50.868;3.152;2022-09-09T17:00:28;18.20;99.90
19081;DHT22;9673;50.868;3.152;2022-09-09T17:03:34;18.20;99.90
19081;DHT22;9673;50.868;3.152;2022-09-09T17:06:45;18.00;99.90
19081;DHT22;9673;50.868;3.152;2022-09-09T17:09:53;17.80;99.90
19081;DHT22;9673;50.868;3.152;2022-09-09T17:13:00;17.60;99.90
19081;DHT22;9673;50.868;3.152;2022-09-09T17:16:06;17.50;99.90
19081;DHT22;9673;50.868;3.152;2022-09-09T17:19:13;17.40;99.90
19081;DHT22;9673;50.868;3.152;2022-09-09T17:22:21;17.30;99.90
19081;DHT22;9673;50.868;3.152;2022-09-09T17:25:28;17.30;99.90
19081;DHT22;9673;50.868;3.152;2022-09-09T17:28:35;17.30;99.90
19081;DHT22;9673;50.868;3.152;2022-09-09T17:31:44;17.30;99.90
19081;DHT22;9673;50.868;3.152;2022-09-09T17:34:50;17.20;99.90
19081;DHT22;9673;50.868;3.152;2022-09-09T17:37:58;17.20;99.90
19081;DHT22;9673;50.868;3.152;2022-09-09T17:41:06;17.20;99.90
19081;DHT22;9673;50.868;3.152;2022-09-09T17:44:13;17.20;99.90
19081;DHT22;9673;50.868;3.152;2022-09-09T17:47:20;17.10;99.90
19081;DHT22;9673;50.868;3.152;2022-09-09T17:50:27;17.10;99.90
19081;DHT22;9673;50.868;3.152;2022-09-09T17:53:38;17.10;99.90
19081;DHT22;9673;50.868;3.152;2022-09-09T17:56:45;17.00;99.90
19081;DHT22;9673;50.868;3.152;2022-09-09T17:59:52;17.00;99.90
19081;DHT22;9673;50.868;3.152;2022-09-09T18:02:59;16.90;99.90
19081;DHT22;9673;50.868;3.152;2022-09-09T18:06:07;16.90;99.90
19081;DHT22;9673;50.868;3.152;2022-09-09T18:09:20;16.90;99.90
19081;DHT22;9673;50.868;3.152;2022-09-09T18:12:28;16.80;99.90
19081;DHT22;9673;50.868;3.152;2022-09-09T18:15:36;16.80;99.90
19081;DHT22;9673;50.868;3.152;2022-09-09T18:18:54;16.80;99.90
19081;DHT22;9673;50.868;3.152;2022-09-09T18:22:03;16.70;99.90
19081;DHT22;9673;50.868;3.152;2022-09-09T18:25:11;16.70;99.90
19081;DHT22;9673;50.868;3.152;2022-09-09T18:28:18;16.70;99.90
19081;DHT22;9673;50.868;3.152;2022-09-09T18:31:29;16.70;99.90
19081;DHT22;9673;50.868;3.152;2022-09-09T18:34:35;16.70;99.90
19081;DHT22;9673;50.868;3.152;2022-09-09T18:37:41;16.70;99.90
19081;DHT22;9673;50.868;3.152;2022-09-09T18:40:49;16.70;99.90
19081;DHT22;9673;50.868;3.152;2022-09-09T18:43:57;16.70;99.90
19081;DHT22;9673;50.868;3.152;2022-09-09T18:47:05;16.70;99.90
19081;DHT22;9673;50.868;3.152;2022-09-09T18:50:12;16.70;99.90
19081;DHT22;9673;50.868;3.152;2022-09-09T18:53:18;16.60;99.90
19081;DHT22;9673;50.868;3.152;2022-09-09T18:56:29;16.60;99.90
19081;DHT22;9673;50.868;3.152;2022-09-09T18:59:35;16.60;99.90
19081;DHT22;9673;50.868;3.152;2022-09-09T19:02:42;16.60;99.90
19081;DHT22;9673;50.868;3.152;2022-09-09T19:05:48;16.50;99.90
19081;DHT22;9673;50.868;3.152;2022-09-09T19:08:55;16.50;99.90
19081;DHT22;9673;50.868;3.152;2022-09-09T19:12:09;16.40;99.90
19081;DHT22;9673;50.868;3.152;2022-09-09T19:15:16;16.30;99.90
19081;DHT22;9673;50.868;3.152;2022-09-09T19:18:22;16.30;99.90
19081;DHT22;9673;50.868;3.152;2022-09-09T19:21:30;16.20;99.90
19081;DHT22;9673;50.868;3.152;2022-09-09T19:24:37;16.20;99.90
19081;DHT22;9673;50.868;3.152;2022-09-09T19:27:45;16.10;99.90
19081;DHT22;9673;50.868;3.152;2022-09-09T19:30:52;16.10;99.90
19081;DHT22;9673;50.868;3.152;2022-09-09T19:34:00;16.00;99.90
19081;DHT22;9673;50.868;3.152;2022-09-09T19:37:06;16.00;99.90
19081;DHT22;9673;50.868;3.152;2022-09-09T19:40:13;15.90;99.90
19081;DHT22;9673;50.868;3.152;2022-09-09T19:43:21;15.90;99.90
19081;DHT22;9673;50.868;3.152;2022-09-09T19:46:28;15.90;99.90
19081;DHT22;9673;50.868;3.152;2022-09-09T19:49:36;15.90;99.90
19081;DHT22;9673;50.868;3.152;2022-09-09T19:52:42;15.90;99.90
19081;DHT22;9673;50.868;3.152;2022-09-09T19:55:49;15.80;99.90
19081;DHT22;9673;50.868;3.152;2022-09-09T19:58:57;15.80;99.90
19081;DHT22;9673;50.868;3.152;2022-09-09T20:02:04;15.70;99.90
19081;DHT22;9673;50.868;3.152;2022-09-09T20:05:10;15.70;99.90
19081;DHT22;9673;50.868;3.152;2022-09-09T20:08:17;15.70;99.90
19081;DHT22;9673;50.868;3.152;2022-09-09T20:11:24;15.70;99.90
19081;DHT22;9673;50.868;3.152;2022-09-09T20:14:32;15.60;99.90
19081;DHT22;9673;50.868;3.152;2022-09-09T20:17:43;15.60;99.90
19081;DHT22;9673;50.868;3.152;2022-09-09T20:20:49;15.60;99.90
19081;DHT22;9673;50.868;3.152;2022-09-09T20:23:56;15.60;99.90
19081;DHT22;9673;50.868;3.152;2022-09-09T20:27:03;15.60;99.90